Time;durP1;ratioP1;P1;durP2;ratioP2;P2;SDS_P1;SDS_P2;PMS_P1;PMS_P2;Temp;Humidity;BMP_temperature;BMP_pressure;BME280_temperature;BME280_humidity;BME280_pressure;Samples;Min_cycle;Max_cycle;Signal;HPM_P1;HPM_P2
2022/07/19 00:01:55;;;;;;;15.80;8.90;;;;;;;14.60;100.00;101590.91;5020692;28;20584;-74
2022/07/19 00:04:21;;;;;;;20.13;9.30;;;;;;;14.62;100.00;101594.25;5005059;28;20113;-76
2022/07/19 00:06:46;;;;;;;13.67;8.30;;;;;;;14.56;100.00;101586.84;5007262;28;20065;-76
2022/07/19 00:09:11;;;;;;;13.53;8.43;;;;;;;14.50;100.00;101590.19;5006261;28;20033;-75
2022/07/19 00:11:37;;;;;;;14.40;8.60;;;;;;;14.53;100.00;101595.22;5019817;28;20053;-76
2022/07/19 00:14:02;;;;;;;13.83;8.23;;;;;;;14.48;100.00;101600.28;5020824;28;20071;-75
2022/07/19 00:16:28;;;;;;;14.17;9.43;;;;;;;14.45;100.00;101592.56;5018825;28;20124;-77
2022/07/19 00:18:53;;;;;;;12.63;7.70;;;;;;;14.43;100.00;101594.56;5019729;28;20024;-75
2022/07/19 00:21:19;;;;;;;17.10;9.13;;;;;;;14.42;100.00;101601.78;4998990;28;20041;-76
2022/07/19 00:23:44;;;;;;;12.57;8.87;;;;;;;14.38;100.00;101587.00;5020624;28;20056;-76
2022/07/19 00:26:09;;;;;;;13.17;7.97;;;;;;;14.31;100.00;101586.81;5006668;28;20036;-75
2022/07/19 00:28:35;;;;;;;11.93;7.70;;;;;;;14.34;100.00;101591.84;5013367;28;20030;-76
2022/07/19 00:31:00;;;;;;;13.13;8.67;;;;;;;14.33;100.00;101590.19;5000986;28;20060;-75
2022/07/19 00:33:26;;;;;;;15.25;9.48;;;;;;;14.30;100.00;101598.56;5004892;28;20378;-76
2022/07/19 00:35:51;;;;;;;14.13;8.47;;;;;;;14.31;100.00;101602.13;5006935;28;20104;-76
2022/07/19 00:38:16;;;;;;;14.20;8.67;;;;;;;14.20;100.00;101584.47;5005335;28;20042;-76
2022/07/19 00:40:42;;;;;;;16.00;9.50;;;;;;;14.24;100.00;101601.94;4990355;28;20132;-76
2022/07/19 00:43:09;;;;;;;13.43;8.85;;;;;;;14.21;100.00;101602.28;5020375;28;20022;-76
2022/07/19 00:45:35;;;;;;;12.02;7.78;;;;;;;14.17;100.00;101603.59;5014201;28;20049;-75
2022/07/19 00:48:00;;;;;;;14.43;8.63;;;;;;;14.15;100.00;101603.75;5019757;28;20025;-76
2022/07/19 00:50:26;;;;;;;13.43;8.40;;;;;;;14.06;100.00;101591.31;5004490;28;20285;-75
2022/07/19 00:53:00;;;;;;;12.20;7.83;;;;;;;13.98;100.00;101595.81;5006942;28;20057;-75
2022/07/19 00:55:28;;;;;;;12.02;7.93;;;;;;;13.96;100.00;101595.16;5018653;28;20033;-76
2022/07/19 00:57:55;;;;;;;14.45;8.75;;;;;;;13.90;100.00;101589.44;5006700;28;20025;-76
2022/07/19 01:00:21;;;;;;;14.65;8.40;;;;;;;13.89;100.00;101594.97;5019122;28;20493;-76
2022/07/19 01:02:47;;;;;;;14.50;8.53;;;;;;;13.84;100.00;101589.28;5023959;28;20099;-76
2022/07/19 01:05:12;;;;;;;12.77;8.65;;;;;;;13.78;100.00;101585.38;5022720;28;20409;-76
2022/07/19 01:07:40;;;;;;;15.43;9.23;;;;;;;13.76;100.00;101584.69;5023054;28;20083;-76
2022/07/19 01:10:08;;;;;;;12.88;7.68;;;;;;;13.72;100.00;101591.41;5009740;28;20503;-76
2022/07/19 01:12:35;;;;;;;14.50;8.30;;;;;;;13.69;100.00;101584.50;5021992;28;20026;-76
2022/07/19 01:15:02;;;;;;;15.90;8.23;;;;;;;13.68;100.00;101595.41;5022261;28;20133;-76
2022/07/19 01:17:29;;;;;;;13.93;9.48;;;;;;;13.62;100.00;101591.53;5021423;28;20045;-76
2022/07/19 01:19:54;;;;;;;12.43;8.05;;;;;;;13.61;100.00;101589.03;5023339;28;20063;-76
2022/07/19 01:22:20;;;;;;;12.93;8.77;;;;;;;13.57;100.00;101595.69;5007445;28;20017;-75
2022/07/19 01:24:45;;;;;;;15.07;9.13;;;;;;;13.52;100.00;101602.38;5019567;28;20230;-75
2022/07/19 01:27:11;;;;;;;11.40;8.00;;;;;;;13.52;100.00;101599.69;5008758;28;20091;-75
2022/07/19 01:29:37;;;;;;;12.30;8.50;;;;;;;13.50;100.00;101607.06;5022180;28;20038;-77
2022/07/19 01:32:04;;;;;;;14.30;8.65;;;;;;;13.49;100.00;101607.25;5009764;28;20098;-76
2022/07/19 01:34:29;;;;;;;15.13;9.07;;;;;;;13.44;100.00;101607.72;5019435;28;20030;-75
2022/07/19 01:36:55;;;;;;;14.60;8.97;;;;;;;13.40;100.00;101609.03;5023444;28;20079;-76
2022/07/19 01:39:20;;;;;;;15.20;8.63;;;;;;;13.37;100.00;101598.63;5001531;28;20084;-76
2022/07/19 01:41:45;;;;;;;14.90;8.43;;;;;;;13.33;100.00;101597.28;5018703;28;20044;-75
2022/07/19 01:44:11;;;;;;;17.23;9.20;;;;;;;13.31;100.00;101599.25;5016723;28;20080;-76
2022/07/19 01:46:37;;;;;;;14.43;9.60;;;;;;;13.31;100.00;101601.94;5022235;28;20052;-76
2022/07/19 01:49:03;;;;;;;20.17;10.00;;;;;;;13.29;100.00;101593.22;5009779;28;20576;-77
2022/07/19 01:51:28;;;;;;;11.35;8.35;;;;;;;13.24;100.00;101590.16;5020718;28;20040;-75
2022/07/19 01:53:54;;;;;;;15.13;9.73;;;;;;;13.19;100.00;101587.94;5021743;28;20029;-75
2022/07/19 01:56:19;;;;;;;17.57;8.63;;;;;;;13.17;100.00;101595.31;5019355;28;20471;-76
2022/07/19 01:58:45;;;;;;;11.25;8.35;;;;;;;13.15;100.00;101591.09;5015654;28;20033;-75
2022/07/19 02:01:10;;;;;;;17.93;9.83;;;;;;;13.10;100.00;101592.41;4988447;28;20037;-75
2022/07/19 02:03:35;;;;;;;14.70;8.27;;;;;;;13.11;100.00;101604.00;5020602;28;20034;-76
2022/07/19 02:06:01;;;;;;;17.30;9.30;;;;;;;13.07;100.00;101598.09;5021533;28;20108;-76
2022/07/19 02:08:27;;;;;;;14.17;8.70;;;;;;;13.07;100.00;101592.72;5020725;28;20033;-76
2022/07/19 02:10:52;;;;;;;13.02;9.48;;;;;;;13.03;100.00;101596.72;5004546;28;20079;-74
2022/07/19 02:13:18;;;;;;;16.70;9.40;;;;;;;12.95;100.00;101591.31;5006685;28;20450;-74
2022/07/19 02:15:43;;;;;;;15.37;10.30;;;;;;;12.91;100.00;101587.28;5022294;28;20021;-74
2022/07/19 02:18:09;;;;;;;14.43;9.67;;;;;;;12.90;100.00;101588.28;5008315;28;20041;-74
2022/07/19 02:20:34;;;;;;;13.63;9.43;;;;;;;12.87;100.00;101585.91;4977814;28;20067;-74
2022/07/19 02:22:59;;;;;;;11.63;8.27;;;;;;;12.87;100.00;101589.41;5008738;28;20036;-74
2022/07/19 02:25:25;;;;;;;15.77;9.63;;;;;;;12.89;100.00;101589.25;5006579;28;20025;-74
2022/07/19 02:27:53;;;;;;;14.63;8.75;;;;;;;12.84;100.00;101591.56;5021326;28;20033;-73
2022/07/19 02:30:19;;;;;;;16.00;8.38;;;;;;;12.83;100.00;101589.88;5006469;28;20053;-74
2022/07/19 02:32:44;;;;;;;16.08;9.13;;;;;;;12.81;100.00;101597.25;4982836;28;20076;-74
2022/07/19 02:35:11;;;;;;;16.20;9.40;;;;;;;12.76;100.00;101596.88;5018872;28;20053;-74
2022/07/19 02:37:37;;;;;;;16.00;9.65;;;;;;;12.75;100.00;101592.50;5007523;28;20038;-73
2022/07/19 02:40:04;;;;;;;13.20;8.77;;;;;;;12.71;100.00;101586.59;5014735;28;20026;-74
2022/07/19 02:42:29;;;;;;;15.18;9.55;;;;;;;12.73;100.00;101583.78;4988232;28;20023;-74
2022/07/19 02:44:55;;;;;;;11.43;7.83;;;;;;;12.70;100.00;101590.31;5006335;28;20492;-73
2022/07/19 02:47:20;;;;;;;16.67;10.50;;;;;;;12.65;100.00;101588.09;5019990;28;20414;-75
2022/07/19 02:49:46;;;;;;;15.70;9.33;;;;;;;12.65;100.00;101587.25;5022274;28;20028;-73
2022/07/19 02:52:11;;;;;;;16.00;8.57;;;;;;;12.61;100.00;101583.19;5007051;28;20036;-75
2022/07/19 02:54:38;;;;;;;14.90;8.93;;;;;;;12.56;100.00;101577.47;5018631;28;20084;-75
2022/07/19 02:57:03;;;;;;;12.00;8.45;;;;;;;12.49;100.00;101573.72;5021806;28;20070;-76
2022/07/19 02:59:28;;;;;;;15.10;8.90;;;;;;;12.51;100.00;101577.09;5002391;28;20018;-74
2022/07/19 03:01:54;;;;;;;13.60;8.43;;;;;;;12.47;100.00;101587.25;5020366;28;20033;-73
2022/07/19 03:04:19;;;;;;;10.20;7.77;;;;;;;12.45;100.00;101586.56;5006020;28;20037;-74
2022/07/19 03:06:44;;;;;;;13.97;9.00;;;;;;;12.42;100.00;101597.59;5008091;28;20040;-73
2022/07/19 03:09:11;;;;;;;12.80;7.47;;;;;;;12.43;100.00;101597.47;5001122;28;20029;-74
2022/07/19 03:11:37;;;;;;;12.73;7.63;;;;;;;12.41;100.00;101595.94;5017984;28;20038;-73
2022/07/19 03:14:03;;;;;;;14.50;7.97;;;;;;;12.39;100.00;101600.59;5020377;28;20025;-74
2022/07/19 03:16:28;;;;;;;13.13;8.10;;;;;;;12.38;100.00;101593.53;5005872;28;20041;-74
2022/07/19 03:18:54;;;;;;;14.97;9.07;;;;;;;12.39;100.00;101597.91;5007846;28;20022;-74
2022/07/19 03:21:19;;;;;;;13.00;8.32;;;;;;;12.38;100.00;101597.06;5017798;28;20091;-74
2022/07/19 03:23:45;;;;;;;14.27;8.47;;;;;;;12.36;100.00;101591.03;5019221;28;20386;-74
2022/07/19 03:26:10;;;;;;;14.63;9.23;;;;;;;12.39;100.00;101598.75;5006616;28;20037;-74
2022/07/19 03:28:36;;;;;;;15.50;9.00;;;;;;;12.37;100.00;101583.84;5006821;28;20122;-74
2022/07/19 03:31:02;;;;;;;12.10;7.88;;;;;;;12.38;100.00;101580.16;5007487;28;20056;-74
2022/07/19 03:33:27;;;;;;;12.18;7.82;;;;;;;12.40;100.00;101589.72;5018987;28;20129;-75
2022/07/19 03:35:53;;;;;;;13.27;8.73;;;;;;;12.45;100.00;101591.94;5007539;28;20091;-74
2022/07/19 03:38:19;;;;;;;14.30;9.07;;;;;;;12.45;100.00;101594.59;5017730;28;20279;-76
2022/07/19 03:40:47;;;;;;;13.17;7.47;;;;;;;12.47;100.00;101597.97;4997948;28;20283;-76
2022/07/19 03:43:13;;;;;;;13.25;8.30;;;;;;;12.44;100.00;101595.63;4975624;28;20482;-77
2022/07/19 03:45:39;;;;;;;10.98;7.80;;;;;;;12.45;100.00;101597.28;5020300;28;20455;-74
2022/07/19 03:48:05;;;;;;;16.63;8.43;;;;;;;12.47;100.00;101595.31;5007345;28;20108;-74
2022/07/19 03:50:30;;;;;;;17.23;8.52;;;;;;;12.52;100.00;101614.41;5018706;28;20032;-74
2022/07/19 03:52:55;;;;;;;14.17;9.30;;;;;;;12.55;100.00;101614.13;5006973;28;20155;-74
2022/07/19 03:55:21;;;;;;;15.37;8.87;;;;;;;12.56;100.00;101613.13;5018492;28;20034;-74
2022/07/19 03:57:46;;;;;;;35.13;20.90;;;;;;;12.59;100.00;101615.47;5012895;28;20758;-76
2022/07/19 04:00:12;;;;;;;34.20;20.33;;;;;;;12.63;100.00;101619.53;5018384;28;20482;-74
2022/07/19 04:02:38;;;;;;;19.20;10.57;;;;;;;12.72;100.00;101616.94;5020342;28;20276;-74
2022/07/19 04:05:03;;;;;;;16.53;9.60;;;;;;;12.76;100.00;101615.63;5007735;28;20142;-76
2022/07/19 04:07:29;;;;;;;12.43;8.77;;;;;;;12.83;100.00;101627.41;4987981;28;20269;-76
2022/07/19 04:09:54;;;;;;;15.63;10.17;;;;;;;12.90;100.00;101617.75;5015637;28;20045;-75
2022/07/19 04:12:20;;;;;;;14.10;9.27;;;;;;;12.98;100.00;101620.47;4988569;28;20037;-75
2022/07/19 04:14:45;;;;;;;15.10;9.10;;;;;;;13.08;100.00;101621.22;5019476;28;20026;-76
2022/07/19 04:17:10;;;;;;;13.97;8.93;;;;;;;13.20;100.00;101624.47;5006293;28;20171;-75
2022/07/19 04:19:36;;;;;;;11.40;7.60;;;;;;;13.31;100.00;101618.03;5006103;28;20210;-76
2022/07/19 04:22:01;;;;;;;14.83;9.03;;;;;;;13.40;100.00;101614.41;5007176;28;20432;-74
2022/07/19 04:24:27;;;;;;;15.13;8.50;;;;;;;13.50;100.00;101616.97;5018194;28;20538;-74
2022/07/19 04:26:52;;;;;;;13.37;8.43;;;;;;;13.61;100.00;101619.38;4990679;28;20303;-74
2022/07/19 04:29:18;;;;;;;11.57;8.03;;;;;;;13.76;100.00;101618.75;5018614;28;20116;-74
2022/07/19 04:31:43;;;;;;;13.17;9.33;;;;;;;13.87;100.00;101619.28;5020096;28;20474;-76
2022/07/19 04:34:08;;;;;;;23.40;15.23;;;;;;;13.99;100.00;101608.25;5020416;28;20047;-76
2022/07/19 04:36:34;;;;;;;18.77;12.77;;;;;;;14.12;100.00;101604.09;5020762;28;20304;-76
2022/07/19 04:39:00;;;;;;;16.48;9.07;;;;;;;14.32;100.00;101615.34;5024189;28;20067;-76
2022/07/19 04:41:25;;;;;;;16.85;9.43;;;;;;;14.47;100.00;101607.50;5020769;28;20053;-77
2022/07/19 04:46:28;;;;;;;14.27;9.43;;;;;;;14.82;100.00;101604.66;5026879;28;20128;-75
2022/07/19 04:48:54;;;;;;;14.20;9.03;;;;;;;15.02;100.00;101615.91;5010568;28;20108;-75
2022/07/19 04:51:19;;;;;;;13.67;9.50;;;;;;;15.19;100.00;101610.31;5027513;28;20087;-75
2022/07/19 04:53:44;;;;;;;18.33;10.73;;;;;;;15.40;100.00;101622.34;5028139;28;20493;-75
2022/07/19 04:56:10;;;;;;;14.97;8.80;;;;;;;15.54;100.00;101632.41;5046915;28;20086;-75
2022/07/19 04:58:35;;;;;;;17.63;9.40;;;;;;;15.67;100.00;101617.56;5048266;28;20078;-75
2022/07/19 05:01:00;;;;;;;15.00;9.93;;;;;;;15.85;100.00;101610.13;5029691;28;20033;-75
2022/07/19 05:03:26;;;;;;;12.07;8.50;;;;;;;16.00;100.00;101613.72;5029168;28;20021;-75
2022/07/19 05:05:51;;;;;;;12.93;9.37;;;;;;;16.22;100.00;101619.31;5048215;28;20076;-75
2022/07/19 05:08:17;;;;;;;12.93;9.37;;;;;;;16.43;100.00;101624.88;5029598;28;20545;-75
2022/07/19 05:10:43;;;;;;;15.50;9.43;;;;;;;16.63;100.00;101616.31;5027733;28;20111;-75
2022/07/19 05:13:08;;;;;;;13.98;8.30;;;;;;;16.84;100.00;101621.88;5047266;28;20608;-75
2022/07/19 05:15:34;;;;;;;13.68;9.20;;;;;;;17.05;100.00;101610.41;5030046;28;20086;-75
2022/07/19 05:17:59;;;;;;;16.73;9.37;;;;;;;17.38;100.00;101609.22;5024053;28;20064;-75
2022/07/19 05:20:25;;;;;;;15.27;10.27;;;;;;;17.48;100.00;101588.16;5029677;28;20628;-75
2022/07/19 05:22:50;;;;;;;13.40;8.63;;;;;;;17.63;100.00;101591.69;5047222;28;20470;-75
2022/07/19 05:25:16;;;;;;;11.80;7.83;;;;;;;17.89;100.00;101585.78;5029792;28;20045;-75
2022/07/19 05:27:43;;;;;;;13.02;8.20;;;;;;;18.39;100.00;101596.69;5047525;28;20025;-75
2022/07/19 05:30:09;;;;;;;13.25;8.15;;;;;;;18.84;100.00;101578.38;5029478;28;20041;-75
2022/07/19 05:32:34;;;;;;;13.82;8.57;;;;;;;19.28;100.00;101546.59;5046881;28;20053;-75
2022/07/19 05:35:00;;;;;;;13.30;9.27;;;;;;;19.78;100.00;101504.75;5029678;28;20036;-75
2022/07/19 05:37:25;;;;;;;13.13;8.93;;;;;;;20.80;100.00;101480.16;5029435;28;20021;-75
2022/07/19 05:39:50;;;;;;;13.00;8.93;;;;;;;21.66;100.00;101370.31;5047730;28;20059;-76
2022/07/19 05:42:16;;;;;;;13.17;8.53;;;;;;;22.50;100.00;101241.03;5046976;28;20733;-76
2022/07/19 05:44:41;;;;;;;13.37;8.60;;;;;;;23.24;100.00;101074.63;5047355;28;20032;-75
2022/07/19 05:47:06;;;;;;;16.50;8.43;;;;;;;23.71;100.00;101076.44;5029638;28;20052;-76
2022/07/19 05:49:32;;;;;;;18.47;8.97;;;;;;;24.23;100.00;101009.00;5047562;28;20564;-76
2022/07/19 05:51:57;;;;;;;14.95;8.45;;;;;;;25.22;100.00;100916.53;5047641;28;20060;-76
2022/07/19 05:54:23;;;;;;;10.80;7.85;;;;;;;25.91;86.12;100814.66;5047579;28;20037;-76
2022/07/19 05:56:48;;;;;;;12.52;8.48;;;;;;;26.27;76.47;100749.19;5030096;28;20378;-76
2022/07/19 05:59:14;;;;;;;12.35;8.13;;;;;;;26.67;74.68;100795.13;5047553;28;20039;-76
2022/07/19 06:01:39;;;;;;;10.95;7.95;;;;;;;26.83;72.71;100814.31;5047303;28;20028;-76
2022/07/19 06:04:05;;;;;;;11.73;7.55;;;;;;;27.36;69.20;100817.75;5029567;28;20033;-76
2022/07/19 06:06:32;;;;;;;11.32;6.68;;;;;;;27.69;65.57;100780.72;5046989;28;20032;-76
2022/07/19 06:08:59;;;;;;;10.30;7.72;;;;;;;26.83;69.13;100798.72;5047220;28;20132;-76
2022/07/19 06:11:25;;;;;;;12.85;8.40;;;;;;;27.07;71.26;100894.13;5028518;28;20017;-76
2022/07/19 06:13:51;;;;;;;;;;;;;;;27.43;71.62;100990.19;5029262;28;20049;-76
2022/07/19 06:16:16;;;;;;;13.07;8.20;;;;;;;27.22;72.58;100959.13;5012042;28;20431;-77
2022/07/19 06:18:42;;;;;;;;;;;;;;;27.63;68.03;100935.41;5029553;28;20363;-77
2022/07/19 06:21:10;;;;;;;;;;;;;;;27.69;65.53;100892.34;5046999;28;20270;-76
2022/07/19 06:23:36;;;;;;;13.98;8.18;;;;;;;26.87;69.70;100887.47;5024304;28;20296;-77
2022/07/19 06:26:02;;;;;;;;;;;;;;;27.53;67.17;100966.38;5038848;28;20509;-77
2022/07/19 06:28:27;;;;;;;13.80;8.07;;;;;;;27.61;66.38;100943.06;5046640;28;19993;-76
2022/07/19 06:30:53;;;;;;;;;;;;;;;27.72;67.07;101010.56;5028500;28;20024;-77
2022/07/19 06:33:19;;;;;;;;;;;;;;;28.36;61.69;100940.63;5046472;28;20046;-74
2022/07/19 06:35:45;;;;;;;10.02;7.20;;;;;;;28.30;61.71;100914.28;5039235;28;20003;-74
2022/07/19 06:38:11;;;;;;;;;;;;;;;28.37;64.05;101015.56;5047015;28;20488;-74
2022/07/19 06:40:36;;;;;;;9.63;6.28;;;;;;;28.97;60.02;100967.16;5046303;28;20003;-74
2022/07/19 06:43:01;;;;;;;;;;;;;;;29.19;60.01;100990.72;5046514;28;20035;-74
2022/07/19 06:45:27;;;;;;;;;;;;;;;29.53;58.56;100974.34;5046107;28;19912;-75
2022/07/19 06:47:52;;;;;;;13.67;7.43;;;;;;;29.54;56.79;100895.38;5028356;28;20392;-74
2022/07/19 06:50:19;;;;;;;8.23;6.35;;;;;;;29.81;55.13;100868.25;5011755;28;20029;-77
2022/07/19 06:52:44;;;;;;;10.77;6.85;;;;;;;30.00;53.69;100827.06;5036440;28;20036;-74
2022/07/19 06:55:10;;;;;;;;;;;;;;;29.80;51.99;100719.94;5027227;28;20100;-75
2022/07/19 06:57:35;;;;;;;10.65;5.47;;;;;;;29.45;55.67;100841.00;5045042;28;20402;-74
2022/07/19 07:00:01;;;;;;;;;;;;;;;29.85;52.26;100739.13;5045492;28;20021;-74
2022/07/19 07:02:26;;;;;;;9.02;5.90;;;;;;;29.84;51.61;100694.31;5045544;28;19912;-74
2022/07/19 07:04:51;;;;;;;;;;;;;;;30.11;52.91;100857.22;5028391;28;20032;-75
2022/07/19 07:07:17;;;;;;;;;;;;;;;30.31;52.49;100828.69;5028379;28;20290;-74
2022/07/19 07:09:42;;;;;;;8.30;5.60;;;;;;;30.11;51.84;100756.22;5039905;28;19955;-75
2022/07/19 07:12:08;;;;;;;;;;;;;;;29.75;53.58;100766.78;5015974;28;20036;-74
2022/07/19 07:14:34;;;;;;;8.13;5.03;;;;;;;29.87;51.47;100703.91;5045387;28;20362;-75
2022/07/19 07:17:00;;;;;;;11.80;6.50;;;;;;;29.84;50.91;100653.03;5015766;28;20025;-74
2022/07/19 07:19:26;;;;;;;;;;;;;;;30.03;50.15;100704.53;5022162;28;20017;-75
2022/07/19 07:21:51;;;;;;;9.75;6.30;;;;;;;29.71;53.92;100840.00;5027686;28;20409;-74
2022/07/19 07:24:16;;;;;;;;;;;;;;;29.28;55.74;100823.25;5027867;28;20025;-74
2022/07/19 07:26:42;;;;;;;8.63;6.30;;;;;;;29.47;56.34;100903.97;5045564;28;19955;-75
2022/07/19 07:29:07;;;;;;;;;;;;;;;28.85;59.20;100894.41;5011194;28;20271;-75
2022/07/19 07:31:32;;;;;;;6.83;5.93;;;;;;;28.68;59.64;100886.47;5045310;28;19923;-76
2022/07/19 07:33:57;;;;;;;;;;;;;;;29.24;58.69;100954.97;5045540;28;20029;-75
2022/07/19 07:36:23;;;;;;;10.23;7.43;;;;;;;28.99;56.68;100788.25;5027688;28;19985;-75
2022/07/19 07:38:48;;;;;;;;;;;;;;;28.52;60.64;100869.25;5028015;28;20029;-75
2022/07/19 07:41:14;;;;;;;9.33;6.57;;;;;;;28.58;59.02;100849.69;5027465;28;20292;-75
2022/07/19 07:43:39;;;;;;;9.20;7.32;;;;;;;28.41;60.34;100861.00;5027129;28;20029;-74
2022/07/19 07:46:04;;;;;;;;;;;;;;;28.72;56.84;100789.50;5027865;28;20127;-75
2022/07/19 07:48:30;;;;;;;12.40;6.57;;;;;;;29.03;56.81;100850.59;5045283;28;19955;-74
2022/07/19 07:50:56;;;;;;;8.63;6.47;;;;;;;28.82;59.68;100917.72;5045464;28;20283;-74
2022/07/19 07:53:21;;;;;;;;;;;;;;;28.53;57.82;100763.78;5027924;28;20029;-74
2022/07/19 07:55:46;;;;;;;20.02;7.55;;;;;;;28.64;58.85;100830.47;5045503;28;20460;-75
2022/07/19 07:58:12;;;;;;;8.75;6.75;;;;;;;28.77;58.74;100877.38;5027569;28;20443;-75
2022/07/19 08:00:39;;;;;;;13.60;7.35;;;;;;;28.43;59.18;100803.06;5027584;28;20041;-77
2022/07/19 08:03:06;;;;;;;9.98;7.22;;;;;;;28.31;59.07;100783.34;5027372;28;20112;-77
2022/07/19 08:05:32;;;;;;;10.45;7.07;;;;;;;28.20;58.37;100733.97;5027582;28;20440;-77
2022/07/19 08:08:00;;;;;;;;;;;;;;;28.14;58.22;100739.75;5046777;28;20107;-75
2022/07/19 08:10:28;;;;;;;11.75;6.65;;;;;;;28.26;58.26;100780.59;5031593;28;19919;-75
2022/07/19 08:12:54;;;;;;;9.23;6.13;;;;;;;28.25;56.76;100713.09;5031378;28;20019;-75
2022/07/19 08:15:20;;;;;;;13.25;6.38;;;;;;;29.01;52.86;100696.16;5031428;28;20041;-75
2022/07/19 08:17:46;;;;;;;12.23;6.03;;;;;;;28.79;55.79;100783.69;5032249;28;20417;-75
2022/07/19 08:20:12;;;;;;;;;;;;;;;28.59;56.58;100777.22;5023461;28;20585;-75
2022/07/19 08:22:37;;;;;;;7.97;6.65;;;;;;;28.69;56.13;100761.78;5049209;28;19938;-75
2022/07/19 08:25:04;;;;;;;10.55;5.88;;;;;;;28.75;51.81;100555.44;5049670;28;20031;-74
2022/07/19 08:27:29;;;;;;;14.57;7.45;;;;;;;29.02;52.29;100655.75;5047205;28;20036;-75
2022/07/19 08:29:55;;;;;;;10.45;5.80;;;;;;;28.63;52.64;100593.44;5048928;28;20025;-74
2022/07/19 08:32:20;;;;;;;13.40;6.10;;;;;;;28.96;52.36;100649.50;5049132;28;20140;-75
2022/07/19 08:34:46;;;;;;;;;;;;;;;29.45;48.24;100490.94;5031642;28;20033;-75
2022/07/19 08:37:11;;;;;;;8.60;5.60;;;;;;;29.03;51.11;100596.94;5049166;28;20394;-75
2022/07/19 08:39:36;;;;;;;;;;;;;;;29.77;48.50;100571.97;5049302;28;20385;-75
2022/07/19 08:42:02;;;;;;;9.37;5.87;;;;;;;29.81;47.57;100546.31;5049567;28;19995;-76
2022/07/19 08:44:29;;;;;;;;;;;;;;;29.94;45.62;100395.34;5031300;28;20064;-76
2022/07/19 08:46:54;;;;;;;8.40;5.22;;;;;;;29.88;44.41;100317.56;5048747;28;19912;-76
2022/07/19 08:49:20;;;;;;;;;;;;;;;29.77;44.58;100294.91;5025045;28;20048;-76
2022/07/19 08:51:48;;;;;;;6.68;4.90;;;;;;;30.25;42.42;100181.72;5048499;28;19909;-75
2022/07/19 08:54:14;;;;;;;7.03;5.20;;;;;;;30.53;41.45;100194.63;5048353;28;20452;-75
2022/07/19 08:59:23;;;;;;;8.98;4.40;;;;;;;29.92;40.56;99947.13;5048940;28;19923;-76
2022/07/19 09:01:49;;;;;;;;;;;;;;;30.45;39.74;100050.22;5031454;28;20021;-75
2022/07/19 09:04:17;;;;;;;6.45;4.95;;;;;;;30.78;42.70;100424.69;5048589;28;20004;-75
2022/07/19 09:06:46;;;;;;;6.28;4.57;;;;;;;30.96;41.06;100280.47;5042632;28;20029;-76
2022/07/19 09:09:14;;;;;;;10.25;5.25;;;;;;;30.85;41.45;100295.59;5048562;28;20680;-75
2022/07/19 09:11:51;;;;;;;6.18;4.53;;;;;;;31.04;40.40;100207.25;5048524;28;20029;-75
2022/07/19 09:14:28;;;;;;;9.15;4.72;;;;;;;30.92;40.47;100183.00;5030519;28;20933;-76
2022/07/19 09:16:53;;;;;;;7.65;4.75;;;;;;;31.24;41.35;100360.34;5025627;28;20068;-77
2022/07/19 09:19:19;;;;;;;;;;;;;;;30.82;43.53;100447.75;5048784;28;20517;-76
2022/07/19 09:22:00;;;;;;;6.88;4.55;;;;;;;30.90;43.00;100394.69;5023597;28;19920;-76
2022/07/19 09:24:27;;;;;;;6.57;4.43;;;;;;;31.17;42.92;100464.72;5048040;28;20029;-76
2022/07/19 09:26:57;;;;;;;6.18;4.95;;;;;;;31.24;40.40;100228.00;5030515;28;20029;-76
2022/07/19 09:29:22;;;;;;;6.32;4.80;;;;;;;31.25;38.61;100050.41;5048235;28;20226;-77
2022/07/19 09:32:01;;;;;;;;;;;;;;;31.57;38.70;100114.66;5014443;28;20474;-76
2022/07/19 09:34:32;;;;;;;9.30;4.60;;;;;;;31.74;36.89;99965.69;5047938;28;19966;-77
2022/07/19 09:37:30;;;;;;;6.45;4.35;;;;;;;31.74;36.87;100013.41;5048143;28;20035;-76
2022/07/19 09:40:02;;;;;;;7.63;4.50;;;;;;;32.03;38.32;100207.19;5018164;28;20037;-76
2022/07/19 09:42:39;;;;;;;7.20;4.97;;;;;;;31.10;37.12;99953.22;5047747;28;20108;-76
2022/07/19 09:45:17;;;;;;;5.82;4.90;;;;;;;31.36;35.41;99871.69;5047810;28;20057;-76
2022/07/19 09:47:47;;;;;;;8.65;5.00;;;;;;;32.17;35.49;100078.94;5048130;28;20032;-76
2022/07/19 09:50:19;;;;;;;6.20;4.72;;;;;;;32.29;33.85;99918.13;5047860;28;20517;-76
2022/07/19 09:52:49;;;;;;;9.38;5.05;;;;;;;31.85;34.77;99919.28;5029730;28;20037;-75
2022/07/19 09:55:16;;;;;;;5.78;4.57;;;;;;;32.78;35.00;100213.56;5030162;28;20389;-75
2022/07/19 09:57:47;;;;;;;6.95;4.40;;;;;;;32.48;36.55;100242.91;5047757;28;20013;-75
2022/07/19 10:00:14;;;;;;;9.25;4.57;;;;;;;32.50;38.54;100425.72;5047284;28;20033;-76
2022/07/19 10:02:43;;;;;;;6.47;4.28;;;;;;;33.08;38.48;100542.78;5029511;28;20412;-76
2022/07/19 10:05:10;;;;;;;8.25;4.85;;;;;;;33.09;38.09;100483.59;5029807;28;20033;-76
2022/07/19 10:07:36;;;;;;;6.55;4.78;;;;;;;33.00;35.92;100265.91;5047417;28;20774;-75
2022/07/19 10:10:07;;;;;;;5.28;4.40;;;;;;;32.84;35.40;100132.09;5029491;28;20132;-76
2022/07/19 10:12:33;;;;;;;6.82;4.55;;;;;;;32.36;36.32;100097.94;5021703;28;20102;-76
2022/07/19 10:14:59;;;;;;;5.75;4.32;;;;;;;33.20;37.55;100476.59;5029380;28;20021;-76
2022/07/19 10:17:37;;;;;;;6.97;4.53;;;;;;;33.68;35.89;100438.97;5029349;28;20074;-76
2022/07/19 10:20:06;;;;;;;9.70;5.10;;;;;;;32.63;36.45;100126.41;5009122;28;20032;-76
2022/07/19 10:22:31;;;;;;;6.28;4.78;;;;;;;33.00;34.70;100104.75;5029265;28;20055;-76
2022/07/19 10:24:58;;;;;;;;;;;;;;;32.73;35.75;100126.09;5047488;28;20124;-76
2022/07/19 10:27:23;;;;;;;7.80;4.70;;;;;;;32.82;34.56;100025.75;5047079;28;19923;-76
2022/07/19 10:29:49;;;;;;;;;;;;;;;32.58;35.08;100016.06;5047500;28;20033;-76
2022/07/19 10:32:15;;;;;;;;;;;;;;;32.73;34.42;99968.56;5046170;28;19920;-77
2022/07/19 10:34:47;;;;;;;5.57;4.72;;;;;;;33.23;37.19;100412.38;5045924;28;20004;-76
2022/07/19 10:37:33;;;;;;;8.30;5.20;;;;;;;33.16;34.39;100069.91;5046613;28;20402;-76
2022/07/19 10:39:59;;;;;;;9.38;5.32;;;;;;;33.37;34.13;100130.84;5046255;28;20032;-76
2022/07/19 10:42:24;;;;;;;;;;;;;;;32.89;34.80;100007.50;5029282;28;20381;-76
2022/07/19 10:45:09;;;;;;;;;;;;;;;33.81;34.89;100303.16;5029197;28;19963;-76
2022/07/19 10:47:59;;;;;;;4.50;4.10;;;;;;;34.14;36.46;100515.00;5039222;28;19912;-76
2022/07/19 10:50:42;;;;;;;9.05;4.93;;;;;;;34.37;35.44;100438.91;5001153;28;20049;-76
2022/07/19 10:53:07;;;;;;;7.38;5.25;;;;;;;34.99;36.15;100636.41;5028330;28;20037;-75
2022/07/19 10:55:34;;;;;;;5.68;4.63;;;;;;;34.50;33.79;100215.34;5045849;28;20027;-76
2022/07/19 10:58:06;;;;;;;9.07;4.97;;;;;;;34.21;32.86;100014.00;5004498;28;20124;-75
2022/07/19 11:00:41;;;;;;;6.97;5.07;;;;;;;34.48;34.18;100265.56;5038481;28;20079;-76
2022/07/19 11:03:22;;;;;;;6.45;4.95;;;;;;;34.83;34.95;100398.44;5028430;28;20112;-76
2022/07/19 11:05:55;;;;;;;6.55;4.55;;;;;;;34.53;33.28;100125.97;5040517;28;20068;-75
2022/07/19 11:08:42;;;;;;;5.30;4.60;;;;;;;34.91;33.21;100246.22;5028303;28;20182;-76
2022/07/19 11:11:17;;;;;;;6.25;4.07;;;;;;;35.34;31.79;100153.47;5003292;28;20090;-75
2022/07/19 11:13:45;;;;;;;6.38;4.03;;;;;;;35.15;31.98;100132.63;5028112;28;20083;-75
2022/07/19 11:16:11;;;;;;;5.95;4.38;;;;;;;35.48;33.19;100339.91;5028008;28;20557;-76
2022/07/19 11:18:36;;;;;;;5.60;4.53;;;;;;;35.24;32.63;100186.06;5028114;28;20116;-76
2022/07/19 11:21:04;;;;;;;5.43;4.32;;;;;;;35.37;32.45;100175.78;5028129;28;20082;-75
2022/07/19 11:23:32;;;;;;;6.25;4.55;;;;;;;35.97;32.66;100376.22;5043588;28;20029;-75
2022/07/19 11:26:07;;;;;;;5.15;3.63;;;;;;;34.55;30.75;99751.53;5028142;28;20025;-75
2022/07/19 11:28:32;;;;;;;5.47;4.30;;;;;;;35.35;30.24;99933.13;5043075;28;20408;-75